Umgeni — 9V9273 — position and weather

sailwx.info

Track history (hours):
 
Tides and Currents Weather Stations Pressure Air Temp Water Temp Dewpoint Dewpoint Depression Visibility Wind Speed Wind Dir Waves Ship Positions

Umgeni

Last reported at 2018-Feb-19 22:59 UTC. Time now 2018-Feb-21 11:51 UTC.
Position N 49°52' W 003°14'.

Length 144 m; draft 8.1 m.

Type: Tanker. MMSI: 566043000.

Date/timePositionNaut miles runAvg speedWind from/ knotsBaromVisibWave heightAir tempDewpointWater temp
2018-Feb-19 22:59N 49°52' W 003°14'910.2
2018-Feb-19 22:07N 49°57' W 003°02'1 9.8
2018-Feb-19 22:00N 49°57' W 003°01'5 9.6
2018-Feb-19 21:30N 49°60' W 002°54'5 9.6
2018-Feb-19 21:00N 50°01' W 002°47'2710.7
2018-Feb-19 18:29N 50°08' W 002°07'613.5
2018-Feb-19 18:00N 50°10' W 001°57'714.3
2018-Feb-19 17:31N 50°12' W 001°46'714.8
2018-Feb-19 17:00N 50°14' W 001°35'815.2
2018-Feb-19 16:30N 50°16' W 001°24'4413.7
2018-Feb-19 13:19N 50°28' W 000°18'411.4
2018-Feb-19 12:59N 50°29' W 000°13'510.7
2018-Feb-19 12:30N 50°31' W 000°05'5 9.4
2018-Feb-19 12:00N 50°32' E 000°02'5 9.0
2018-Feb-19 11:30N 50°33' E 000°09'5 8.8
2018-Feb-19 11:00N 50°35' E 000°16'4 8.8
2018-Feb-19 10:29N 50°36' E 000°23'4 9.2
2018-Feb-19 10:00N 50°37' E 000°30'5 9.9
2018-Feb-19 09:30N 50°39' E 000°37'510.9
2018-Feb-19 09:00N 50°42' E 000°44'611.7
2018-Feb-19 08:30N 50°45' E 000°52'612.3
2018-Feb-19 08:00N 50°49' E 000°59'912.5
2018-Feb-19 07:16N 50°55' E 001°10'311.6
2018-Feb-19 06:59N 50°57' E 001°14'612.0
2018-Feb-19 06:30N 51°01' E 001°21'611.3
2018-Feb-19 06:00N 51°05' E 001°28'510.2
2018-Feb-19 05:30N 51°08' E 001°34'5 9.4
2018-Feb-19 05:00N 51°11' E 001°40'5 9.3
2018-Feb-19 04:30N 51°14' E 001°45'5 9.1
2018-Feb-19 04:00N 51°18' E 001°50'4 8.8
2018-Feb-19 03:30N 51°22' E 001°52'5 9.0
2018-Feb-19 03:00N 51°26' E 001°55'5 9.5
2018-Feb-19 02:30N 51°30' E 001°60'510.1
2018-Feb-19 02:00N 51°33' E 002°05'510.2
2018-Feb-19 01:30N 51°37' E 002°11'610.7
2018-Feb-19 00:59N 51°41' E 002°17'3711.7
2018-Feb-18 21:50N 52°02' E 003°06'412.1
2018-Feb-18 21:29N 52°03' E 003°12'612.1
2018-Feb-18 21:00N 52°03' E 003°22'612.0
2018-Feb-18 20:30N 52°03' E 003°32'611.8
2018-Feb-18 19:59N 52°03' E 003°42'511.3
2018-Feb-18 19:30N 52°03' E 003°50'4 8.8
2018-Feb-18 19:00N 52°02' E 003°57'611.6
2018-Feb-18 18:30N 51°59' E 004°06'5 9.7
2018-Feb-18 18:00N 51°56' E 004°12'4 8.5
2018-Feb-18 17:30N 51°54' E 004°18'1 2.2
2018-Feb-18 17:00N 51°53' E 004°18'0 0.0
2018-Feb-18 16:03N 51°53' E 004°18'0 0.0
2018-Feb-18 15:15N 51°53' E 004°18'0 0.0
2018-Feb-18 14:39N 51°53' E 004°18'0 0.0
2018-Feb-18 13:27N 51°53' E 004°18'0 0.0
2018-Feb-18 12:57N 51°53' E 004°18'0 0.0
2018-Feb-18 12:15N 51°53' E 004°18'0 0.0
2018-Feb-18 12:00N 51°53' E 004°18'0 0.0
2018-Feb-18 11:18N 51°53' E 004°18'0 0.0
2018-Feb-18 10:39N 51°53' E 004°18'0 0.0
2018-Feb-18 10:30N 51°53' E 004°18'0 0.0
2018-Feb-18 09:51N 51°53' E 004°18'0 0.0
2018-Feb-18 09:27N 51°53' E 004°18'0 0.0
2018-Feb-18 08:51N 51°53' E 004°18'0 0.0
2018-Feb-18 08:27N 51°53' E 004°18'0 0.0
2018-Feb-18 07:03N 51°53' E 004°18'0 0.0
2018-Feb-18 06:48N 51°53' E 004°18'0 0.0
2018-Feb-18 06:30N 51°53' E 004°18'0 0.0
2018-Feb-18 05:57N 51°53' E 004°18'0 0.0
2018-Feb-18 05:27N 51°53' E 004°18'0 0.0
2018-Feb-18 04:57N 51°53' E 004°18'0 0.0
2018-Feb-18 04:30N 51°53' E 004°18'0 0.0
2018-Feb-18 04:00N 51°53' E 004°18'0 0.0
2018-Feb-18 03:27N 51°53' E 004°18'0 0.0
2018-Feb-18 03:00N 51°53' E 004°18'0 0.0
2018-Feb-18 02:21N 51°53' E 004°18'0 0.0
2018-Feb-18 01:57N 51°53' E 004°18'0 0.0
2018-Feb-18 01:21N 51°53' E 004°18'0 0.0
2018-Feb-18 01:00N 51°53' E 004°18'0 0.0
2018-Feb-18 00:03N 51°53' E 004°18'0 0.0
2018-Feb-17 23:54N 51°53' E 004°18'0 0.0
2018-Feb-17 23:27N 51°53' E 004°18'0 0.0
2018-Feb-17 22:54N 51°53' E 004°18'0 0.0
2018-Feb-17 22:27N 51°53' E 004°18'0 0.0
2018-Feb-17 21:42N 51°53' E 004°18'0 0.0
2018-Feb-17 21:21N 51°53' E 004°18'0 0.0
2018-Feb-17 20:30N 51°53' E 004°18'0 0.0
2018-Feb-17 20:00N 51°53' E 004°18'0 0.0
2018-Feb-17 19:30N 51°53' E 004°18'0 0.0
2018-Feb-17 18:57N 51°53' E 004°18'0 0.0
2018-Feb-17 18:27N 51°53' E 004°18'0 0.0
2018-Feb-17 17:27N 51°53' E 004°18'0 0.0
2018-Feb-17 16:57N 51°53' E 004°18'0 0.0
2018-Feb-17 16:21N 51°53' E 004°18'0 0.0
2018-Feb-17 16:00N 51°53' E 004°18'0 0.0
2018-Feb-17 15:24N 51°53' E 004°18'0 0.0
2018-Feb-17 14:51N 51°53' E 004°18'0 0.0
2018-Feb-17 14:27N 51°53' E 004°18'0 0.0
2018-Feb-17 13:33N 51°53' E 004°18'0 0.1
2018-Feb-17 13:27N 51°53' E 004°18'0 0.0
2018-Feb-17 13:00N 51°53' E 004°18'0 0.0
2018-Feb-17 12:21N 51°53' E 004°18'0 0.0
2018-Feb-17 12:00N 51°53' E 004°18'0 0.0
2018-Feb-17 10:21N 51°53' E 004°18'0 0.0
2018-Feb-17 09:57N 51°53' E 004°18'0 0.0
2018-Feb-17 09:24N 51°53' E 004°18'0 0.0
2018-Feb-17 08:57N 51°53' E 004°18'0 0.0
2018-Feb-17 08:21N 51°53' E 004°18'0 0.0
2018-Feb-17 08:00N 51°53' E 004°18'0 0.0
2018-Feb-17 07:30N 51°53' E 004°18'0 0.0
2018-Feb-17 07:00N 51°53' E 004°18'0 0.0
2018-Feb-17 06:30N 51°53' E 004°18'0 0.0
2018-Feb-17 05:57N 51°53' E 004°18'0 0.0
2018-Feb-17 05:15N 51°53' E 004°18'0 0.0
2018-Feb-17 04:57N 51°53' E 004°18'0 0.0
2018-Feb-17 04:30N 51°53' E 004°18'0 0.0
2018-Feb-17 04:00N 51°53' E 004°18'0 0.0
2018-Feb-17 03:15N 51°53' E 004°18'0 0.0
2018-Feb-17 03:00N 51°53' E 004°18'0 0.0
2018-Feb-17 02:24N 51°53' E 004°18'0 0.0
2018-Feb-17 01:48N 51°53' E 004°18'0 0.0
2018-Feb-17 01:29N 51°53' E 004°18'0 0.9
2018-Feb-17 01:00N 51°53' E 004°18'3 5.1
2018-Feb-17 00:30N 51°55' E 004°15'4 8.1
2018-Feb-17 00:00N 51°57' E 004°10'4 7.7
2018-Feb-16 23:30N 51°59' E 004°05'4 8.2
2018-Feb-16 23:00N 51°60' E 003°58'5 9.2
2018-Feb-16 22:30N 51°60' E 003°51'5 9.1
2018-Feb-16 22:00N 52°00' E 003°43'510.3
2018-Feb-16 21:30N 52°05' E 003°41'510.1
2018-Feb-16 21:00N 52°09' E 003°37'0 0.8
2018-Feb-16 20:29N 52°10' E 003°37'0 0.0
2018-Feb-16 19:50N 52°10' E 003°37'0 0.2
2018-Feb-16 19:20N 52°10' E 003°37'0 0.1
2018-Feb-16 18:26N 52°10' E 003°37'0 0.0
2018-Feb-16 14:47N 52°10' E 003°37'0 0.0
2018-Feb-16 14:20N 52°10' E 003°37'0 0.1
2018-Feb-16 13:56N 52°10' E 003°37'0 0.0
2018-Feb-16 12:23N 52°10' E 003°37'0 0.1
2018-Feb-16 11:53N 52°10' E 003°37'0 0.1
2018-Feb-16 11:23N 52°10' E 003°37'0 0.1
2018-Feb-16 10:59N 52°10' E 003°37'0 0.0
2018-Feb-16 10:26N 52°10' E 003°37'0 0.0
2018-Feb-16 09:59N 52°10' E 003°37'0 0.0
2018-Feb-16 05:56N 52°10' E 003°37'0 0.0
2018-Feb-16 05:29N 52°10' E 003°37'0 0.0
2018-Feb-16 04:32N 52°10' E 003°37'0 0.0
2018-Feb-16 04:29N 52°10' E 003°37'0 0.0
2018-Feb-16 03:44N 52°10' E 003°37'0 0.0
2018-Feb-16 03:24N 52°10' E 003°37'1 1.6
2018-Feb-16 03:00N 52°10' E 003°38'3 6.7
2018-Feb-16 02:30N 52°12' E 003°42'4 8.2
2018-Feb-16 02:01N 52°15' E 003°46'5 9.9
2018-Feb-16 01:30N 52°20' E 003°48'510.0
2018-Feb-16 01:00N 52°25' E 003°51'510.7
2018-Feb-16 00:30N 52°29' E 003°57'510.5
2018-Feb-16 00:00N 52°30' E 004°05'611.1
2018-Feb-15 23:30N 52°30' E 004°14'510.9
2018-Feb-15 23:00N 52°29' E 004°23'8 8.3
2018-Feb-15 22:01N 52°28' E 004°37'1 1.6
2018-Feb-15 21:30N 52°28' E 004°38'4 8.3
2018-Feb-15 21:00N 52°26' E 004°44'1 2.5
2018-Feb-15 20:30N 52°25' E 004°45'0 0.0
2018-Feb-15 19:55N 52°25' E 004°45'0 0.0
2018-Feb-15 19:25N 52°25' E 004°45'0 0.0
2018-Feb-15 18:01N 52°25' E 004°45'0 0.0
2018-Feb-15 17:55N 52°25' E 004°45'0 0.0
2018-Feb-15 17:16N 52°25' E 004°45'0 0.0
2018-Feb-15 16:55N 52°25' E 004°45'0 0.0
2018-Feb-15 15:43N 52°25' E 004°45'0 0.0
2018-Feb-15 15:25N 52°25' E 004°45'0 0.0
2018-Feb-15 14:43N 52°25' E 004°45'0 0.0
2018-Feb-15 14:22N 52°25' E 004°45'0 0.0
2018-Feb-15 13:55N 52°25' E 004°45'0 0.0
2018-Feb-15 13:25N 52°25' E 004°45'0 0.0
2018-Feb-15 12:58N 52°25' E 004°45'0 0.0
2018-Feb-15 12:25N 52°25' E 004°45'0 0.0
2018-Feb-15 11:58N 52°25' E 004°45'0 0.0
2018-Feb-15 11:28N 52°25' E 004°45'0 0.0
2018-Feb-15 10:58N 52°25' E 004°45'0 0.0
2018-Feb-15 10:10N 52°25' E 004°45'0 0.0
2018-Feb-15 09:52N 52°25' E 004°45'0 0.0
2018-Feb-15 08:34N 52°25' E 004°45'0 0.0
2018-Feb-15 08:28N 52°25' E 004°45'0 0.0
2018-Feb-15 07:49N 52°25' E 004°45'0 0.0
2018-Feb-15 07:28N 52°25' E 004°45'0 0.0
2018-Feb-15 06:52N 52°25' E 004°45'0 0.0
2018-Feb-15 06:25N 52°25' E 004°45'0 0.0
2018-Feb-15 05:55N 52°25' E 004°45'0 0.0
2018-Feb-15 05:19N 52°25' E 004°45'0 0.0
2018-Feb-15 04:52N 52°25' E 004°45'0 0.0
2018-Feb-15 04:25N 52°25' E 004°45'0 0.0
2018-Feb-15 03:52N 52°25' E 004°45'0 0.0
2018-Feb-15 03:28N 52°25' E 004°45'0 0.0
2018-Feb-15 02:58N 52°25' E 004°45'0 0.0
2018-Feb-15 02:28N 52°25' E 004°45'0 0.0
2018-Feb-15 01:58N 52°25' E 004°45'0 0.0
2018-Feb-15 01:07N 52°25' E 004°45'0 0.0
2018-Feb-15 00:46N 52°25' E 004°45'0 0.0
2018-Feb-15 00:28N 52°25' E 004°45'0 0.0
2018-Feb-14 23:49N 52°25' E 004°45'0 0.0
2018-Feb-14 23:22N 52°25' E 004°45'0 0.0
2018-Feb-14 22:58N 52°25' E 004°45'0 0.0
2018-Feb-14 22:22N 52°25' E 004°45'0 0.0
2018-Feb-14 21:58N 52°25' E 004°45'0 0.0
2018-Feb-14 21:25N 52°25' E 004°45'0 0.0
2018-Feb-14 20:46N 52°25' E 004°45'0 0.0
2018-Feb-14 20:28N 52°25' E 004°45'0 0.0
2018-Feb-14 19:49N 52°25' E 004°45'0 0.0
2018-Feb-14 19:19N 52°25' E 004°45'0 0.0
2018-Feb-14 18:58N 52°25' E 004°45'0 0.0
2018-Feb-14 18:22N 52°25' E 004°45'0 0.0
2018-Feb-14 17:46N 52°25' E 004°45'0 0.0
2018-Feb-14 17:25N 52°25' E 004°45'0 0.0
2018-Feb-14 16:40N 52°25' E 004°45'0 0.0
2018-Feb-14 16:28N 52°25' E 004°45'0 0.0
2018-Feb-14 15:58N 52°25' E 004°45'0 0.0
2018-Feb-14 15:07N 52°25' E 004°45'0 0.0
2018-Feb-14 14:46N 52°25' E 004°45'0 0.0
2018-Feb-14 14:04N 52°25' E 004°45'0 0.0
2018-Feb-14 13:46N 52°25' E 004°45'0 0.0
2018-Feb-14 13:22N 52°25' E 004°45'0 0.4
2018-Feb-14 13:00N 52°25' E 004°45'2 5.0
2018-Feb-14 12:31N 52°27' E 004°42'3 6.7
2018-Feb-14 12:00N 52°28' E 004°37'1 2.2
2018-Feb-14 11:30N 52°28' E 004°35'4 8.2
2018-Feb-14 11:00N 52°28' E 004°28'4 8.8
2018-Feb-14 10:30N 52°29' E 004°21'5 9.7
2018-Feb-14 10:00N 52°29' E 004°13'510.0
2018-Feb-14 09:30N 52°28' E 004°05'4 8.8
2018-Feb-14 09:00N 52°27' E 003°58'3 5.0
2018-Feb-14 08:30N 52°26' E 004°01'0 0.6
2018-Feb-14 07:50N 52°26' E 004°01'0 0.0
2018-Feb-14 07:23N 52°26' E 004°01'0 0.0
2018-Feb-14 06:47N 52°26' E 004°01'0 0.1
2018-Feb-14 06:26N 52°26' E 004°01'0 0.0
2018-Feb-14 05:56N 52°26' E 004°01'0 0.0
2018-Feb-14 05:26N 52°26' E 004°01'0 0.0
2018-Feb-14 04:56N 52°26' E 004°01'0 0.0
2018-Feb-14 04:20N 52°26' E 004°02'0 0.0
2018-Feb-14 03:59N 52°26' E 004°02'0 0.0
2018-Feb-14 03:29N 52°26' E 004°02'0 0.0
2018-Feb-14 02:56N 52°26' E 004°02'0 0.0
2018-Feb-14 02:28N 52°26' E 004°02'0 0.0
2018-Feb-14 01:58N 52°26' E 004°02'0 0.0
2018-Feb-14 01:28N 52°26' E 004°02'0 0.0
2018-Feb-14 00:58N 52°26' E 004°02'0 0.0
2018-Feb-14 00:28N 52°26' E 004°02'0 0.0
2018-Feb-13 23:58N 52°26' E 004°02'0 0.0
2018-Feb-13 23:28N 52°26' E 004°02'0 0.0
2018-Feb-13 22:52N 52°26' E 004°02'0 0.2
2018-Feb-13 22:28N 52°26' E 004°01'0 0.1
2018-Feb-13 21:55N 52°26' E 004°01'0 0.1
2018-Feb-13 21:28N 52°26' E 004°01'0 0.0
2018-Feb-13 20:58N 52°26' E 004°01'0 0.0
2018-Feb-13 20:28N 52°26' E 004°01'0 0.1
2018-Feb-13 19:58N 52°26' E 004°01'0 0.1
2018-Feb-13 19:28N 52°26' E 004°01'0 0.1
2018-Feb-13 18:58N 52°26' E 004°01'0 0.1
2018-Feb-13 18:28N 52°26' E 004°02'0 0.0
2018-Feb-13 17:58N 52°26' E 004°02'0 0.1
2018-Feb-13 17:28N 52°26' E 004°02'0 0.0
2018-Feb-13 16:58N 52°26' E 004°02'0 0.0
2018-Feb-13 16:28N 52°26' E 004°02'0 0.0
2018-Feb-13 15:46N 52°26' E 004°02'0 0.0
2018-Feb-13 15:28N 52°26' E 004°02'0 0.0
2018-Feb-13 14:58N 52°26' E 004°02'0 0.0
2018-Feb-13 14:28N 52°26' E 004°02'0 0.0
2018-Feb-13 13:58N 52°26' E 004°02'0 0.0
2018-Feb-13 13:25N 52°26' E 004°02'0 0.0
2018-Feb-13 12:58N 52°26' E 004°02'0 0.0
2018-Feb-13 12:28N 52°26' E 004°02'0 0.0
2018-Feb-13 11:58N 52°26' E 004°02'0 0.0
2018-Feb-13 11:28N 52°26' E 004°02'0 0.0
2018-Feb-13 10:58N 52°26' E 004°02'0 0.0
2018-Feb-13 10:28N 52°26' E 004°02'0 0.1
2018-Feb-13 09:58N 52°26' E 004°02'0 0.0
2018-Feb-13 09:28N 52°26' E 004°02'0 0.0
2018-Feb-13 08:58N 52°26' E 004°02'0 0.0
2018-Feb-13 08:28N 52°26' E 004°01'0 0.0
2018-Feb-13 07:46N 52°26' E 004°01'0 0.0
2018-Feb-13 07:19N 52°26' E 004°02'0 0.2
2018-Feb-13 06:58N 52°26' E 004°02'0 0.0
2018-Feb-13 06:28N 52°26' E 004°02'0 0.0
2018-Feb-13 05:58N 52°26' E 004°02'0 0.0
2018-Feb-13 05:28N 52°26' E 004°02'0 0.0
2018-Feb-13 04:58N 52°26' E 004°02'0 0.0
2018-Feb-13 04:28N 52°26' E 004°02'0 0.0
2018-Feb-13 03:58N 52°26' E 004°02'0 0.0
2018-Feb-13 03:28N 52°26' E 004°02'0 0.0
2018-Feb-13 02:58N 52°26' E 004°02'0 0.0
2018-Feb-13 02:28N 52°26' E 004°02'0 0.0
2018-Feb-13 01:58N 52°26' E 004°02'0 0.0
2018-Feb-13 01:28N 52°26' E 004°02'0 0.0
2018-Feb-13 00:58N 52°26' E 004°02'0 0.0
2018-Feb-13 00:28N 52°26' E 004°02'0 0.0
2018-Feb-12 23:58N 52°26' E 004°02'0 0.1
2018-Feb-12 23:25N 52°26' E 004°02'0 0.0
2018-Feb-12 22:58N 52°26' E 004°02'0 0.0
2018-Feb-12 22:25N 52°26' E 004°02'0 0.1
2018-Feb-12 21:55N 52°26' E 004°02'0 0.0
2018-Feb-12 21:25N 52°26' E 004°02'0 0.1
2018-Feb-12 20:58N 52°26' E 004°02'0 0.1
2018-Feb-12 20:28N 52°26' E 004°02'0 0.1
2018-Feb-12 19:28N 52°26' E 004°02'0 0.0
2018-Feb-12 18:55N 52°26' E 004°02'0 0.1
2018-Feb-12 18:28N 52°26' E 004°02'0 0.1
2018-Feb-12 17:58N 52°26' E 004°02'0 0.1
2018-Feb-12 17:22N 52°26' E 004°02'0 0.1
2018-Feb-12 16:58N 52°26' E 004°02'0 0.0
2018-Feb-12 16:28N 52°26' E 004°02'0 0.0
2018-Feb-12 15:58N 52°26' E 004°02'0 0.0
2018-Feb-12 15:16N 52°26' E 004°02'0 0.0
2018-Feb-12 14:58N 52°26' E 004°02'0 0.0
2018-Feb-12 14:28N 52°26' E 004°02'0 0.0
2018-Feb-12 13:52N 52°26' E 004°02'0 0.0
2018-Feb-12 13:25N 52°26' E 004°02'0 0.0
2018-Feb-12 12:58N 52°26' E 004°02'0 0.0
2018-Feb-12 12:28N 52°26' E 004°02'0 0.1
2018-Feb-12 11:58N 52°26' E 004°02'0 0.1
2018-Feb-12 11:25N 52°26' E 004°02'0 0.0
2018-Feb-12 10:52N 52°26' E 004°02'0 0.0
2018-Feb-12 10:28N 52°26' E 004°02'0 0.1
2018-Feb-12 09:58N 52°26' E 004°02'0 0.0
2018-Feb-12 09:28N 52°26' E 004°02'0 0.1
2018-Feb-12 08:49N 52°26' E 004°02'0 0.0
2018-Feb-12 08:28N 52°26' E 004°02'0 0.0
2018-Feb-12 07:19N 52°26' E 004°02'0 0.0
2018-Feb-12 06:58N 52°26' E 004°02'0 0.0
2018-Feb-12 06:04N 52°26' E 004°02'0 0.0
2018-Feb-12 05:49N 52°26' E 004°02'0 0.1
2018-Feb-12 05:22N 52°26' E 004°02'0 0.0
2018-Feb-12 04:58N 52°26' E 004°02'0 0.0
2018-Feb-12 04:28N 52°26' E 004°02'0 0.0
2018-Feb-12 03:58N 52°26' E 004°02'0 0.0
2018-Feb-12 03:25N 52°26' E 004°02'0 0.1
2018-Feb-12 02:58N 52°26' E 004°02'0 0.0
2018-Feb-12 02:28N 52°26' E 004°02'0 0.0
2018-Feb-12 01:58N 52°26' E 004°02'0 0.0
2018-Feb-12 01:28N 52°26' E 004°02'0 0.0
2018-Feb-12 00:55N 52°26' E 004°02'0 0.0
2018-Feb-12 00:25N 52°26' E 004°02'0 0.0
2018-Feb-11 23:58N 52°26' E 004°02'0 0.1
2018-Feb-11 23:28N 52°26' E 004°02'0 0.0
2018-Feb-11 22:55N 52°26' E 004°02'0 0.1
2018-Feb-11 22:25N 52°26' E 004°02'0 0.0
2018-Feb-11 21:55N 52°26' E 004°02'0 0.0
2018-Feb-11 21:22N 52°26' E 004°02'0 0.1
2018-Feb-11 20:55N 52°26' E 004°02'0 0.1
2018-Feb-11 20:28N 52°26' E 004°02'0 0.0
2018-Feb-11 19:58N 52°26' E 004°02'0 0.0
2018-Feb-11 19:28N 52°26' E 004°02'0 0.0
2018-Feb-11 18:55N 52°26' E 004°02'0 0.0
2018-Feb-11 18:28N 52°26' E 004°02'0 0.0
2018-Feb-11 17:58N 52°26' E 004°02'0 0.0
2018-Feb-11 17:28N 52°26' E 004°02'0 0.0
2018-Feb-11 16:58N 52°26' E 004°02'0 0.1
2018-Feb-11 16:28N 52°26' E 004°02'0 0.0
2018-Feb-11 15:58N 52°26' E 004°02'0 0.1
2018-Feb-11 15:28N 52°26' E 004°02'0 0.0
2018-Feb-11 14:58N 52°26' E 004°02'0 0.0
2018-Feb-11 14:22N 52°26' E 004°02'0 0.1
2018-Feb-11 13:52N 52°26' E 004°02'0 0.0
2018-Feb-11 13:28N 52°26' E 004°02'0 0.0
2018-Feb-11 12:58N 52°26' E 004°02'0 0.0
2018-Feb-11 12:28N 52°26' E 004°02'0 0.0
2018-Feb-11 11:58N 52°26' E 004°01'0 0.1
2018-Feb-11 11:28N 52°26' E 004°01'0 0.1
2018-Feb-11 10:58N 52°26' E 004°01'0 0.3
2018-Feb-11 10:28N 52°26' E 004°01'0 0.0
2018-Feb-11 09:58N 52°26' E 004°01'0 0.0
2018-Feb-11 09:28N 52°26' E 004°01'0 0.0
2018-Feb-11 08:58N 52°26' E 004°01'0 0.0
2018-Feb-11 08:28N 52°26' E 004°01'0 0.0
2018-Feb-11 07:58N 52°26' E 004°01'0 0.0
2018-Feb-11 07:19N 52°26' E 004°01'0 0.1
2018-Feb-11 06:55N 52°26' E 004°01'0 0.0
2018-Feb-11 06:28N 52°26' E 004°01'0 0.0
2018-Feb-11 05:58N 52°26' E 004°01'0 0.1
2018-Feb-11 05:25N 52°26' E 004°01'0 0.0
2018-Feb-11 04:58N 52°26' E 004°01'0 0.1
2018-Feb-11 04:28N 52°26' E 004°01'0 0.0
2018-Feb-11 03:58N 52°26' E 004°01'0 0.0
2018-Feb-11 03:25N 52°26' E 004°01'0 0.1
2018-Feb-11 02:52N 52°26' E 004°01'0 0.0
2018-Feb-11 02:28N 52°26' E 004°01'0 0.1
2018-Feb-11 01:58N 52°26' E 004°01'0 0.0
2018-Feb-11 01:28N 52°26' E 004°01'0 0.0
2018-Feb-11 00:58N 52°26' E 004°01'0 0.0
2018-Feb-11 00:28N 52°26' E 004°01'0 0.0
2018-Feb-10 23:55N 52°26' E 004°01'0 0.0
2018-Feb-10 23:25N 52°26' E 004°01'0 0.0
2018-Feb-10 22:58N 52°26' E 004°01'0 0.0
2018-Feb-10 22:25N 52°26' E 004°01'0 0.0
2018-Feb-10 21:58N 52°26' E 004°01'0 0.0
2018-Feb-10 21:28N 52°26' E 004°01'0 0.0
2018-Feb-10 20:55N 52°26' E 004°01'0 0.0
2018-Feb-10 20:28N 52°26' E 004°01'0 0.0
2018-Feb-10 19:58N 52°26' E 004°01'0 0.0
2018-Feb-10 19:28N 52°26' E 004°01'0 0.0
2018-Feb-10 18:58N 52°26' E 004°01'0 0.1
2018-Feb-10 18:28N 52°26' E 004°01'0 0.0
2018-Feb-10 17:55N 52°26' E 004°01'0 0.0
2018-Feb-10 17:28N 52°26' E 004°01'0 0.0
2018-Feb-10 16:58N 52°26' E 004°01'0 0.0
2018-Feb-10 16:28N 52°26' E 004°01'0 0.0
2018-Feb-10 15:58N 52°26' E 004°01'0 0.0
2018-Feb-10 15:25N 52°26' E 004°01'0 0.0
2018-Feb-10 14:58N 52°26' E 004°01'0 0.0
2018-Feb-10 14:28N 52°26' E 004°01'0 0.0
2018-Feb-10 13:58N 52°26' E 004°01'0 0.0
2018-Feb-10 13:28N 52°26' E 004°01'0 0.0
2018-Feb-10 12:58N 52°26' E 004°01'0 0.0
2018-Feb-10 12:25N 52°26' E 004°01'0 0.0
2018-Feb-10 11:58N 52°26' E 004°01'0 0.0
2018-Feb-10 11:28N 52°26' E 004°01'0 0.0
2018-Feb-10 10:55N 52°26' E 004°01'0 0.0
2018-Feb-10 10:28N 52°26' E 004°01'0 0.0
2018-Feb-10 09:55N 52°26' E 004°01'0 0.1
2018-Feb-10 09:25N 52°26' E 004°01'0 0.1
2018-Feb-10 08:49N 52°26' E 004°01'0 0.0
2018-Feb-10 08:04N 52°26' E 004°01'0 0.1
2018-Feb-10 07:55N 52°26' E 004°01'0 0.1
2018-Feb-10 07:25N 52°26' E 004°01'0 0.0
2018-Feb-10 06:52N 52°26' E 004°01'0 0.0
2018-Feb-10 06:28N 52°26' E 004°01'0 0.0
2018-Feb-10 05:43N 52°26' E 004°01'0 0.0
2018-Feb-10 05:25N 52°26' E 004°01'0 0.0
2018-Feb-10 04:58N 52°26' E 004°01'0 0.1
2018-Feb-10 04:28N 52°26' E 004°01'0 0.1
2018-Feb-10 03:58N 52°26' E 004°01'0 0.0
2018-Feb-10 03:25N 52°26' E 004°01'0 0.0
2018-Feb-10 02:58N 52°26' E 004°01'0 0.1
2018-Feb-10 02:28N 52°26' E 004°01'0 0.0
2018-Feb-10 01:58N 52°26' E 004°01'0 0.1
2018-Feb-10 01:28N 52°26' E 004°01'0 0.0
2018-Feb-10 00:43N 52°26' E 004°01'0 0.0
2018-Feb-10 00:22N 52°26' E 004°01'0 0.0
2018-Feb-09 23:58N 52°26' E 004°01'0 0.0
2018-Feb-09 23:28N 52°26' E 004°01'  
Track history (hours):
 
Tides and Currents Weather Stations Pressure Air Temp Water Temp Dewpoint Dewpoint Depression Visibility Wind Speed Wind Dir Waves Ship Positions

Umgeni

Last reported at 2018-Feb-19 22:59 UTC. Time now 2018-Feb-21 11:51 UTC.
Position N 49°52' W 003°14'.

Length 144 m; draft 8.1 m.

Type: Tanker. MMSI: 566043000.

Date/timePositionNaut miles runAvg speedWind from/ knotsBaromVisibWave heightAir tempDewpointWater temp
2018-Feb-19 22:59N 49°52' W 003°14'910.2
2018-Feb-19 22:07N 49°57' W 003°02'1 9.8
2018-Feb-19 22:00N 49°57' W 003°01'5 9.6
2018-Feb-19 21:30N 49°60' W 002°54'5 9.6
2018-Feb-19 21:00N 50°01' W 002°47'2710.7
2018-Feb-19 18:29N 50°08' W 002°07'613.5
2018-Feb-19 18:00N 50°10' W 001°57'714.3
2018-Feb-19 17:31N 50°12' W 001°46'714.8
2018-Feb-19 17:00N 50°14' W 001°35'815.2
2018-Feb-19 16:30N 50°16' W 001°24'4413.7
2018-Feb-19 13:19N 50°28' W 000°18'411.4
2018-Feb-19 12:59N 50°29' W 000°13'510.7
2018-Feb-19 12:30N 50°31' W 000°05'5 9.4
2018-Feb-19 12:00N 50°32' E 000°02'5 9.0
2018-Feb-19 11:30N 50°33' E 000°09'5 8.8
2018-Feb-19 11:00N 50°35' E 000°16'4 8.8
2018-Feb-19 10:29N 50°36' E 000°23'4 9.2
2018-Feb-19 10:00N 50°37' E 000°30'5 9.9
2018-Feb-19 09:30N 50°39' E 000°37'510.9
2018-Feb-19 09:00N 50°42' E 000°44'611.7
2018-Feb-19 08:30N 50°45' E 000°52'612.3
2018-Feb-19 08:00N 50°49' E 000°59'912.5
2018-Feb-19 07:16N 50°55' E 001°10'311.6
2018-Feb-19 06:59N 50°57' E 001°14'612.0
2018-Feb-19 06:30N 51°01' E 001°21'611.3
2018-Feb-19 06:00N 51°05' E 001°28'510.2
2018-Feb-19 05:30N 51°08' E 001°34'5 9.4
2018-Feb-19 05:00N 51°11' E 001°40'5 9.3
2018-Feb-19 04:30N 51°14' E 001°45'5 9.1
2018-Feb-19 04:00N 51°18' E 001°50'4 8.8
2018-Feb-19 03:30N 51°22' E 001°52'5 9.0
2018-Feb-19 03:00N 51°26' E 001°55'5 9.5
2018-Feb-19 02:30N 51°30' E 001°60'510.1
2018-Feb-19 02:00N 51°33' E 002°05'510.2
2018-Feb-19 01:30N 51°37' E 002°11'610.7
2018-Feb-19 00:59N 51°41' E 002°17'3711.7
2018-Feb-18 21:50N 52°02' E 003°06'412.1
2018-Feb-18 21:29N 52°03' E 003°12'612.1
2018-Feb-18 21:00N 52°03' E 003°22'612.0
2018-Feb-18 20:30N 52°03' E 003°32'611.8
2018-Feb-18 19:59N 52°03' E 003°42'511.3
2018-Feb-18 19:30N 52°03' E 003°50'4 8.8
2018-Feb-18 19:00N 52°02' E 003°57'611.6
2018-Feb-18 18:30N 51°59' E 004°06'5 9.7
2018-Feb-18 18:00N 51°56' E 004°12'4 8.5
2018-Feb-18 17:30N 51°54' E 004°18'1 2.2
2018-Feb-18 17:00N 51°53' E 004°18'0 0.0
2018-Feb-18 16:03N 51°53' E 004°18'0 0.0
2018-Feb-18 15:15N 51°53' E 004°18'0 0.0
2018-Feb-18 14:39N 51°53' E 004°18'0 0.0
2018-Feb-18 13:27N 51°53' E 004°18'0 0.0
2018-Feb-18 12:57N 51°53' E 004°18'0 0.0
2018-Feb-18 12:15N 51°53' E 004°18'0 0.0
2018-Feb-18 12:00N 51°53' E 004°18'0 0.0
2018-Feb-18 11:18N 51°53' E 004°18'0 0.0
2018-Feb-18 10:39N 51°53' E 004°18'0 0.0
2018-Feb-18 10:30N 51°53' E 004°18'0 0.0
2018-Feb-18 09:51N 51°53' E 004°18'0 0.0
2018-Feb-18 09:27N 51°53' E 004°18'0 0.0
2018-Feb-18 08:51N 51°53' E 004°18'0 0.0
2018-Feb-18 08:27N 51°53' E 004°18'0 0.0
2018-Feb-18 07:03N 51°53' E 004°18'0 0.0
2018-Feb-18 06:48N 51°53' E 004°18'0 0.0
2018-Feb-18 06:30N 51°53' E 004°18'0 0.0
2018-Feb-18 05:57N 51°53' E 004°18'0 0.0
2018-Feb-18 05:27N 51°53' E 004°18'0 0.0
2018-Feb-18 04:57N 51°53' E 004°18'0 0.0
2018-Feb-18 04:30N 51°53' E 004°18'0 0.0
2018-Feb-18 04:00N 51°53' E 004°18'0 0.0
2018-Feb-18 03:27N 51°53' E 004°18'0 0.0
2018-Feb-18 03:00N 51°53' E 004°18'0 0.0
2018-Feb-18 02:21N 51°53' E 004°18'0 0.0
2018-Feb-18 01:57N 51°53' E 004°18'0 0.0
2018-Feb-18 01:21N 51°53' E 004°18'0 0.0
2018-Feb-18 01:00N 51°53' E 004°18'0 0.0
2018-Feb-18 00:03N 51°53' E 004°18'0 0.0
2018-Feb-17 23:54N 51°53' E 004°18'0 0.0
2018-Feb-17 23:27N 51°53' E 004°18'0 0.0
2018-Feb-17 22:54N 51°53' E 004°18'0 0.0
2018-Feb-17 22:27N 51°53' E 004°18'0 0.0
2018-Feb-17 21:42N 51°53' E 004°18'0 0.0
2018-Feb-17 21:21N 51°53' E 004°18'0 0.0
2018-Feb-17 20:30N 51°53' E 004°18'0 0.0
2018-Feb-17 20:00N 51°53' E 004°18'0 0.0
2018-Feb-17 19:30N 51°53' E 004°18'0 0.0
2018-Feb-17 18:57N 51°53' E 004°18'0 0.0
2018-Feb-17 18:27N 51°53' E 004°18'0 0.0
2018-Feb-17 17:27N 51°53' E 004°18'0 0.0
2018-Feb-17 16:57N 51°53' E 004°18'0 0.0
2018-Feb-17 16:21N 51°53' E 004°18'0 0.0
2018-Feb-17 16:00N 51°53' E 004°18'0 0.0
2018-Feb-17 15:24N 51°53' E 004°18'0 0.0
2018-Feb-17 14:51N 51°53' E 004°18'0 0.0
2018-Feb-17 14:27N 51°53' E 004°18'0 0.0
2018-Feb-17 13:33N 51°53' E 004°18'0 0.1
2018-Feb-17 13:27N 51°53' E 004°18'0 0.0
2018-Feb-17 13:00N 51°53' E 004°18'0 0.0
2018-Feb-17 12:21N 51°53' E 004°18'0 0.0
2018-Feb-17 12:00N 51°53' E 004°18'0 0.0
2018-Feb-17 10:21N 51°53' E 004°18'0 0.0
2018-Feb-17 09:57N 51°53' E 004°18'0 0.0
2018-Feb-17 09:24N 51°53' E 004°18'0 0.0
2018-Feb-17 08:57N 51°53' E 004°18'0 0.0
2018-Feb-17 08:21N 51°53' E 004°18'0 0.0
2018-Feb-17 08:00N 51°53' E 004°18'0 0.0
2018-Feb-17 07:30N 51°53' E 004°18'0 0.0
2018-Feb-17 07:00N 51°53' E 004°18'0 0.0
2018-Feb-17 06:30N 51°53' E 004°18'0 0.0
2018-Feb-17 05:57N 51°53' E 004°18'0 0.0
2018-Feb-17 05:15N 51°53' E 004°18'0 0.0
2018-Feb-17 04:57N 51°53' E 004°18'0 0.0
2018-Feb-17 04:30N 51°53' E 004°18'0 0.0
2018-Feb-17 04:00N 51°53' E 004°18'0 0.0
2018-Feb-17 03:15N 51°53' E 004°18'0 0.0
2018-Feb-17 03:00N 51°53' E 004°18'0 0.0
2018-Feb-17 02:24N 51°53' E 004°18'0 0.0
2018-Feb-17 01:48N 51°53' E 004°18'0 0.0
2018-Feb-17 01:29N 51°53' E 004°18'0 0.9
2018-Feb-17 01:00N 51°53' E 004°18'3 5.1
2018-Feb-17 00:30N 51°55' E 004°15'4 8.1
2018-Feb-17 00:00N 51°57' E 004°10'4 7.7
2018-Feb-16 23:30N 51°59' E 004°05'4 8.2
2018-Feb-16 23:00N 51°60' E 003°58'5 9.2
2018-Feb-16 22:30N 51°60' E 003°51'5 9.1
2018-Feb-16 22:00N 52°00' E 003°43'510.3
2018-Feb-16 21:30N 52°05' E 003°41'510.1
2018-Feb-16 21:00N 52°09' E 003°37'0 0.8
2018-Feb-16 20:29N 52°10' E 003°37'0 0.0
2018-Feb-16 19:50N 52°10' E 003°37'0 0.2
2018-Feb-16 19:20N 52°10' E 003°37'0 0.1
2018-Feb-16 18:26N 52°10' E 003°37'0 0.0
2018-Feb-16 14:47N 52°10' E 003°37'0 0.0
2018-Feb-16 14:20N 52°10' E 003°37'0 0.1
2018-Feb-16 13:56N 52°10' E 003°37'0 0.0
2018-Feb-16 12:23N 52°10' E 003°37'0 0.1
2018-Feb-16 11:53N 52°10' E 003°37'0 0.1
2018-Feb-16 11:23N 52°10' E 003°37'0 0.1
2018-Feb-16 10:59N 52°10' E 003°37'0 0.0
2018-Feb-16 10:26N 52°10' E 003°37'0 0.0
2018-Feb-16 09:59N 52°10' E 003°37'0 0.0
2018-Feb-16 05:56N 52°10' E 003°37'0 0.0
2018-Feb-16 05:29N 52°10' E 003°37'0 0.0
2018-Feb-16 04:32N 52°10' E 003°37'0 0.0
2018-Feb-16 04:29N 52°10' E 003°37'0 0.0
2018-Feb-16 03:44N 52°10' E 003°37'0 0.0
2018-Feb-16 03:24N 52°10' E 003°37'1 1.6
2018-Feb-16 03:00N 52°10' E 003°38'3 6.7
2018-Feb-16 02:30N 52°12' E 003°42'4 8.2
2018-Feb-16 02:01N 52°15' E 003°46'5 9.9
2018-Feb-16 01:30N 52°20' E 003°48'510.0
2018-Feb-16 01:00N 52°25' E 003°51'510.7
2018-Feb-16 00:30N 52°29' E 003°57'510.5
2018-Feb-16 00:00N 52°30' E 004°05'611.1
2018-Feb-15 23:30N 52°30' E 004°14'510.9
2018-Feb-15 23:00N 52°29' E 004°23'8 8.3
2018-Feb-15 22:01N 52°28' E 004°37'1 1.6
2018-Feb-15 21:30N 52°28' E 004°38'4 8.3
2018-Feb-15 21:00N 52°26' E 004°44'1 2.5
2018-Feb-15 20:30N 52°25' E 004°45'0 0.0
2018-Feb-15 19:55N 52°25' E 004°45'0 0.0
2018-Feb-15 19:25N 52°25' E 004°45'0 0.0
2018-Feb-15 18:01N 52°25' E 004°45'0 0.0
2018-Feb-15 17:55N 52°25' E 004°45'0 0.0
2018-Feb-15 17:16N 52°25' E 004°45'0 0.0
2018-Feb-15 16:55N 52°25' E 004°45'0 0.0
2018-Feb-15 15:43N 52°25' E 004°45'0 0.0
2018-Feb-15 15:25N 52°25' E 004°45'0 0.0
2018-Feb-15 14:43N 52°25' E 004°45'0 0.0
2018-Feb-15 14:22N 52°25' E 004°45'0 0.0
2018-Feb-15 13:55N 52°25' E 004°45'0 0.0
2018-Feb-15 13:25N 52°25' E 004°45'0 0.0
2018-Feb-15 12:58N 52°25' E 004°45'0 0.0
2018-Feb-15 12:25N 52°25' E 004°45'0 0.0
2018-Feb-15 11:58N 52°25' E 004°45'0 0.0
2018-Feb-15 11:28N 52°25' E 004°45'0 0.0
2018-Feb-15 10:58N 52°25' E 004°45'0 0.0
2018-Feb-15 10:10N 52°25' E 004°45'0 0.0
2018-Feb-15 09:52N 52°25' E 004°45'0 0.0
2018-Feb-15 08:34N 52°25' E 004°45'0 0.0
2018-Feb-15 08:28N 52°25' E 004°45'0 0.0
2018-Feb-15 07:49N 52°25' E 004°45'0 0.0
2018-Feb-15 07:28N 52°25' E 004°45'0 0.0
2018-Feb-15 06:52N 52°25' E 004°45'0 0.0
2018-Feb-15 06:25N 52°25' E 004°45'0 0.0
2018-Feb-15 05:55N 52°25' E 004°45'0 0.0
2018-Feb-15 05:19N 52°25' E 004°45'0 0.0
2018-Feb-15 04:52N 52°25' E 004°45'0 0.0
2018-Feb-15 04:25N 52°25' E 004°45'0 0.0
2018-Feb-15 03:52N 52°25' E 004°45'0 0.0
2018-Feb-15 03:28N 52°25' E 004°45'0 0.0
2018-Feb-15 02:58N 52°25' E 004°45'0 0.0
2018-Feb-15 02:28N 52°25' E 004°45'0 0.0
2018-Feb-15 01:58N 52°25' E 004°45'0 0.0
2018-Feb-15 01:07N 52°25' E 004°45'0 0.0
2018-Feb-15 00:46N 52°25' E 004°45'0 0.0
2018-Feb-15 00:28N 52°25' E 004°45'0 0.0
2018-Feb-14 23:49N 52°25' E 004°45'0 0.0
2018-Feb-14 23:22N 52°25' E 004°45'0 0.0
2018-Feb-14 22:58N 52°25' E 004°45'0 0.0
2018-Feb-14 22:22N 52°25' E 004°45'0 0.0
2018-Feb-14 21:58N 52°25' E 004°45'0 0.0
2018-Feb-14 21:25N 52°25' E 004°45'0 0.0
2018-Feb-14 20:46N 52°25' E 004°45'0 0.0
2018-Feb-14 20:28N 52°25' E 004°45'0 0.0
2018-Feb-14 19:49N 52°25' E 004°45'0 0.0
2018-Feb-14 19:19N 52°25' E 004°45'0 0.0
2018-Feb-14 18:58N 52°25' E 004°45'0 0.0
2018-Feb-14 18:22N 52°25' E 004°45'0 0.0
2018-Feb-14 17:46N 52°25' E 004°45'0 0.0
2018-Feb-14 17:25N 52°25' E 004°45'0 0.0
2018-Feb-14 16:40N 52°25' E 004°45'0 0.0
2018-Feb-14 16:28N 52°25' E 004°45'0 0.0
2018-Feb-14 15:58N 52°25' E 004°45'0 0.0
2018-Feb-14 15:07N 52°25' E 004°45'0 0.0
2018-Feb-14 14:46N 52°25' E 004°45'0 0.0
2018-Feb-14 14:04N 52°25' E 004°45'0 0.0
2018-Feb-14 13:46N 52°25' E 004°45'0 0.0
2018-Feb-14 13:22N 52°25' E 004°45'0 0.4
2018-Feb-14 13:00N 52°25' E 004°45'2 5.0
2018-Feb-14 12:31N 52°27' E 004°42'3 6.7
2018-Feb-14 12:00N 52°28' E 004°37'1 2.2
2018-Feb-14 11:30N 52°28' E 004°35'4 8.2
2018-Feb-14 11:00N 52°28' E 004°28'4 8.8
2018-Feb-14 10:30N 52°29' E 004°21'5 9.7
2018-Feb-14 10:00N 52°29' E 004°13'510.0
2018-Feb-14 09:30N 52°28' E 004°05'4 8.8
2018-Feb-14 09:00N 52°27' E 003°58'3 5.0
2018-Feb-14 08:30N 52°26' E 004°01'0 0.6
2018-Feb-14 07:50N 52°26' E 004°01'0 0.0
2018-Feb-14 07:23N 52°26' E 004°01'0 0.0
2018-Feb-14 06:47N 52°26' E 004°01'0 0.1
2018-Feb-14 06:26N 52°26' E 004°01'0 0.0
2018-Feb-14 05:56N 52°26' E 004°01'0 0.0
2018-Feb-14 05:26N 52°26' E 004°01'0 0.0
2018-Feb-14 04:56N 52°26' E 004°01'0 0.0
2018-Feb-14 04:20N 52°26' E 004°02'0 0.0
2018-Feb-14 03:59N 52°26' E 004°02'0 0.0
2018-Feb-14 03:29N 52°26' E 004°02'0 0.0
2018-Feb-14 02:56N 52°26' E 004°02'0 0.0
2018-Feb-14 02:28N 52°26' E 004°02'0 0.0
2018-Feb-14 01:58N 52°26' E 004°02'0 0.0
2018-Feb-14 01:28N 52°26' E 004°02'0 0.0
2018-Feb-14 00:58N 52°26' E 004°02'0 0.0
2018-Feb-14 00:28N 52°26' E 004°02'0 0.0
2018-Feb-13 23:58N 52°26' E 004°02'0 0.0
2018-Feb-13 23:28N 52°26' E 004°02'0 0.0
2018-Feb-13 22:52N 52°26' E 004°02'0 0.2
2018-Feb-13 22:28N 52°26' E 004°01'0 0.1
2018-Feb-13 21:55N 52°26' E 004°01'0 0.1
2018-Feb-13 21:28N 52°26' E 004°01'0 0.0
2018-Feb-13 20:58N 52°26' E 004°01'0 0.0
2018-Feb-13 20:28N 52°26' E 004°01'0 0.1
2018-Feb-13 19:58N 52°26' E 004°01'0 0.1
2018-Feb-13 19:28N 52°26' E 004°01'0 0.1
2018-Feb-13 18:58N 52°26' E 004°01'0 0.1
2018-Feb-13 18:28N 52°26' E 004°02'0 0.0
2018-Feb-13 17:58N 52°26' E 004°02'0 0.1
2018-Feb-13 17:28N 52°26' E 004°02'0 0.0
2018-Feb-13 16:58N 52°26' E 004°02'0 0.0
2018-Feb-13 16:28N 52°26' E 004°02'0 0.0
2018-Feb-13 15:46N 52°26' E 004°02'0 0.0
2018-Feb-13 15:28N 52°26' E 004°02'0 0.0
2018-Feb-13 14:58N 52°26' E 004°02'0 0.0
2018-Feb-13 14:28N 52°26' E 004°02'0 0.0
2018-Feb-13 13:58N 52°26' E 004°02'0 0.0
2018-Feb-13 13:25N 52°26' E 004°02'0 0.0
2018-Feb-13 12:58N 52°26' E 004°02'0 0.0
2018-Feb-13 12:28N 52°26' E 004°02'0 0.0
2018-Feb-13 11:58N 52°26' E 004°02'0 0.0
2018-Feb-13 11:28N 52°26' E 004°02'0 0.0
2018-Feb-13 10:58N 52°26' E 004°02'0 0.0
2018-Feb-13 10:28N 52°26' E 004°02'0 0.1
2018-Feb-13 09:58N 52°26' E 004°02'0 0.0
2018-Feb-13 09:28N 52°26' E 004°02'0 0.0
2018-Feb-13 08:58N 52°26' E 004°02'0 0.0
2018-Feb-13 08:28N 52°26' E 004°01'0 0.0
2018-Feb-13 07:46N 52°26' E 004°01'0 0.0
2018-Feb-13 07:19N 52°26' E 004°02'0 0.2
2018-Feb-13 06:58N 52°26' E 004°02'0 0.0
2018-Feb-13 06:28N 52°26' E 004°02'0 0.0
2018-Feb-13 05:58N 52°26' E 004°02'0 0.0
2018-Feb-13 05:28N 52°26' E 004°02'0 0.0
2018-Feb-13 04:58N 52°26' E 004°02'0 0.0
2018-Feb-13 04:28N 52°26' E 004°02'0 0.0
2018-Feb-13 03:58N 52°26' E 004°02'0 0.0
2018-Feb-13 03:28N 52°26' E 004°02'0 0.0
2018-Feb-13 02:58N 52°26' E 004°02'0 0.0
2018-Feb-13 02:28N 52°26' E 004°02'0 0.0
2018-Feb-13 01:58N 52°26' E 004°02'0 0.0
2018-Feb-13 01:28N 52°26' E 004°02'0 0.0
2018-Feb-13 00:58N 52°26' E 004°02'0 0.0
2018-Feb-13 00:28N 52°26' E 004°02'0 0.0
2018-Feb-12 23:58N 52°26' E 004°02'0 0.1
2018-Feb-12 23:25N 52°26' E 004°02'0 0.0
2018-Feb-12 22:58N 52°26' E 004°02'0 0.0
2018-Feb-12 22:25N 52°26' E 004°02'0 0.1
2018-Feb-12 21:55N 52°26' E 004°02'0 0.0
2018-Feb-12 21:25N 52°26' E 004°02'0 0.1
2018-Feb-12 20:58N 52°26' E 004°02'0 0.1
2018-Feb-12 20:28N 52°26' E 004°02'0 0.1
2018-Feb-12 19:28N 52°26' E 004°02'0 0.0
2018-Feb-12 18:55N 52°26' E 004°02'0 0.1
2018-Feb-12 18:28N 52°26' E 004°02'0 0.1
2018-Feb-12 17:58N 52°26' E 004°02'0 0.1
2018-Feb-12 17:22N 52°26' E 004°02'0 0.1
2018-Feb-12 16:58N 52°26' E 004°02'0 0.0
2018-Feb-12 16:28N 52°26' E 004°02'0 0.0
2018-Feb-12 15:58N 52°26' E 004°02'0 0.0
2018-Feb-12 15:16N 52°26' E 004°02'0 0.0
2018-Feb-12 14:58N 52°26' E 004°02'0 0.0
2018-Feb-12 14:28N 52°26' E 004°02'0 0.0
2018-Feb-12 13:52N 52°26' E 004°02'0 0.0
2018-Feb-12 13:25N 52°26' E 004°02'0 0.0
2018-Feb-12 12:58N 52°26' E 004°02'0 0.0
2018-Feb-12 12:28N 52°26' E 004°02'0 0.1
2018-Feb-12 11:58N 52°26' E 004°02'0 0.1
2018-Feb-12 11:25N 52°26' E 004°02'0 0.0
2018-Feb-12 10:52N 52°26' E 004°02'0 0.0
2018-Feb-12 10:28N 52°26' E 004°02'0 0.1
2018-Feb-12 09:58N 52°26' E 004°02'0 0.0
2018-Feb-12 09:28N 52°26' E 004°02'0 0.1
2018-Feb-12 08:49N 52°26' E 004°02'0 0.0
2018-Feb-12 08:28N 52°26' E 004°02'0 0.0
2018-Feb-12 07:19N 52°26' E 004°02'0 0.0
2018-Feb-12 06:58N 52°26' E 004°02'0 0.0
2018-Feb-12 06:04N 52°26' E 004°02'0 0.0
2018-Feb-12 05:49N 52°26' E 004°02'0 0.1
2018-Feb-12 05:22N 52°26' E 004°02'0 0.0
2018-Feb-12 04:58N 52°26' E 004°02'0 0.0
2018-Feb-12 04:28N 52°26' E 004°02'0 0.0
2018-Feb-12 03:58N 52°26' E 004°02'0 0.0
2018-Feb-12 03:25N 52°26' E 004°02'0 0.1
2018-Feb-12 02:58N 52°26' E 004°02'0 0.0
2018-Feb-12 02:28N 52°26' E 004°02'0 0.0
2018-Feb-12 01:58N 52°26' E 004°02'0 0.0
2018-Feb-12 01:28N 52°26' E 004°02'0 0.0
2018-Feb-12 00:55N 52°26' E 004°02'0 0.0
2018-Feb-12 00:25N 52°26' E 004°02'0 0.0
2018-Feb-11 23:58N 52°26' E 004°02'0 0.1
2018-Feb-11 23:28N 52°26' E 004°02'0 0.0
2018-Feb-11 22:55N 52°26' E 004°02'0 0.1
2018-Feb-11 22:25N 52°26' E 004°02'0 0.0
2018-Feb-11 21:55N 52°26' E 004°02'0 0.0
2018-Feb-11 21:22N 52°26' E 004°02'0 0.1
2018-Feb-11 20:55N 52°26' E 004°02'0 0.1
2018-Feb-11 20:28N 52°26' E 004°02'0 0.0
2018-Feb-11 19:58N 52°26' E 004°02'0 0.0
2018-Feb-11 19:28N 52°26' E 004°02'0 0.0
2018-Feb-11 18:55N 52°26' E 004°02'0 0.0
2018-Feb-11 18:28N 52°26' E 004°02'0 0.0
2018-Feb-11 17:58N 52°26' E 004°02'0 0.0
2018-Feb-11 17:28N 52°26' E 004°02'0 0.0
2018-Feb-11 16:58N 52°26' E 004°02'0 0.1
2018-Feb-11 16:28N 52°26' E 004°02'0 0.0
2018-Feb-11 15:58N 52°26' E 004°02'0 0.1
2018-Feb-11 15:28N 52°26' E 004°02'0 0.0
2018-Feb-11 14:58N 52°26' E 004°02'0 0.0
2018-Feb-11 14:22N 52°26' E 004°02'0 0.1
2018-Feb-11 13:52N 52°26' E 004°02'0 0.0
2018-Feb-11 13:28N 52°26' E 004°02'0 0.0
2018-Feb-11 12:58N 52°26' E 004°02'0 0.0
2018-Feb-11 12:28N 52°26' E 004°02'0 0.0
2018-Feb-11 11:58N 52°26' E 004°01'0 0.1
2018-Feb-11 11:28N 52°26' E 004°01'0 0.1
2018-Feb-11 10:58N 52°26' E 004°01'0 0.3
2018-Feb-11 10:28N 52°26' E 004°01'0 0.0
2018-Feb-11 09:58N 52°26' E 004°01'0 0.0
2018-Feb-11 09:28N 52°26' E 004°01'0 0.0
2018-Feb-11 08:58N 52°26' E 004°01'0 0.0
2018-Feb-11 08:28N 52°26' E 004°01'0 0.0
2018-Feb-11 07:58N 52°26' E 004°01'0 0.0
2018-Feb-11 07:19N 52°26' E 004°01'0 0.1
2018-Feb-11 06:55N 52°26' E 004°01'0 0.0
2018-Feb-11 06:28N 52°26' E 004°01'0 0.0
2018-Feb-11 05:58N 52°26' E 004°01'0 0.1
2018-Feb-11 05:25N 52°26' E 004°01'0 0.0
2018-Feb-11 04:58N 52°26' E 004°01'0 0.1
2018-Feb-11 04:28N 52°26' E 004°01'0 0.0
2018-Feb-11 03:58N 52°26' E 004°01'0 0.0
2018-Feb-11 03:25N 52°26' E 004°01'0 0.1
2018-Feb-11 02:52N 52°26' E 004°01'0 0.0
2018-Feb-11 02:28N 52°26' E 004°01'0 0.1
2018-Feb-11 01:58N 52°26' E 004°01'0 0.0
2018-Feb-11 01:28N 52°26' E 004°01'0 0.0
2018-Feb-11 00:58N 52°26' E 004°01'0 0.0
2018-Feb-11 00:28N 52°26' E 004°01'0 0.0
2018-Feb-10 23:55N 52°26' E 004°01'0 0.0
2018-Feb-10 23:25N 52°26' E 004°01'0 0.0
2018-Feb-10 22:58N 52°26' E 004°01'0 0.0
2018-Feb-10 22:25N 52°26' E 004°01'0 0.0
2018-Feb-10 21:58N 52°26' E 004°01'0 0.0
2018-Feb-10 21:28N 52°26' E 004°01'0 0.0
2018-Feb-10 20:55N 52°26' E 004°01'0 0.0
2018-Feb-10 20:28N 52°26' E 004°01'0 0.0
2018-Feb-10 19:58N 52°26' E 004°01'0 0.0
2018-Feb-10 19:28N 52°26' E 004°01'0 0.0
2018-Feb-10 18:58N 52°26' E 004°01'0 0.1
2018-Feb-10 18:28N 52°26' E 004°01'0 0.0
2018-Feb-10 17:55N 52°26' E 004°01'0 0.0
2018-Feb-10 17:28N 52°26' E 004°01'0 0.0
2018-Feb-10 16:58N 52°26' E 004°01'0 0.0
2018-Feb-10 16:28N 52°26' E 004°01'0 0.0
2018-Feb-10 15:58N 52°26' E 004°01'0 0.0
2018-Feb-10 15:25N 52°26' E 004°01'0 0.0
2018-Feb-10 14:58N 52°26' E 004°01'0 0.0
2018-Feb-10 14:28N 52°26' E 004°01'0 0.0
2018-Feb-10 13:58N 52°26' E 004°01'0 0.0
2018-Feb-10 13:28N 52°26' E 004°01'0 0.0
2018-Feb-10 12:58N 52°26' E 004°01'0 0.0
2018-Feb-10 12:25N 52°26' E 004°01'0 0.0
2018-Feb-10 11:58N 52°26' E 004°01'0 0.0
2018-Feb-10 11:28N 52°26' E 004°01'0 0.0
2018-Feb-10 10:55N 52°26' E 004°01'0 0.0
2018-Feb-10 10:28N 52°26' E 004°01'0 0.0
2018-Feb-10 09:55N 52°26' E 004°01'0 0.1
2018-Feb-10 09:25N 52°26' E 004°01'0 0.1
2018-Feb-10 08:49N 52°26' E 004°01'0 0.0
2018-Feb-10 08:04N 52°26' E 004°01'0 0.1
2018-Feb-10 07:55N 52°26' E 004°01'0 0.1
2018-Feb-10 07:25N 52°26' E 004°01'0 0.0
2018-Feb-10 06:52N 52°26' E 004°01'0 0.0
2018-Feb-10 06:28N 52°26' E 004°01'0 0.0
2018-Feb-10 05:43N 52°26' E 004°01'0 0.0
2018-Feb-10 05:25N 52°26' E 004°01'0 0.0
2018-Feb-10 04:58N 52°26' E 004°01'0 0.1
2018-Feb-10 04:28N 52°26' E 004°01'0 0.1
2018-Feb-10 03:58N 52°26' E 004°01'0 0.0
2018-Feb-10 03:25N 52°26' E 004°01'0 0.0
2018-Feb-10 02:58N 52°26' E 004°01'0 0.1
2018-Feb-10 02:28N 52°26' E 004°01'0 0.0
2018-Feb-10 01:58N 52°26' E 004°01'0 0.1
2018-Feb-10 01:28N 52°26' E 004°01'0 0.0
2018-Feb-10 00:43N 52°26' E 004°01'0 0.0
2018-Feb-10 00:22N 52°26' E 004°01'0 0.0
2018-Feb-09 23:58N 52°26' E 004°01'0 0.0
2018-Feb-09 23:28N 52°26' E 004°01'  

Dump ship's entire track history